createdAt,value
2022-08-31T10:35:56.973Z,748.13
2022-08-31T10:36:56.959Z,770.63
2022-08-31T10:37:56.942Z,793.13
2022-08-31T10:38:56.925Z,804.38
2022-08-31T10:39:56.908Z,810.00
2022-08-31T10:40:56.898Z,810.00
2022-08-31T10:41:56.879Z,815.63
2022-08-31T10:42:56.859Z,821.25
2022-08-31T10:43:56.843Z,826.88
2022-08-31T10:44:56.846Z,838.13
2022-08-31T10:45:56.858Z,855.00
2022-08-31T10:46:56.807Z,877.50
2022-08-31T10:47:56.789Z,888.75
2022-08-31T10:48:56.779Z,922.50
2022-08-31T10:49:56.759Z,911.25
2022-08-31T10:50:56.768Z,922.50
2022-08-31T10:51:56.751Z,922.50
2022-08-31T10:53:01.841Z,916.88
2022-08-31T10:53:56.711Z,916.88
2022-08-31T10:54:56.692Z,922.50
2022-08-31T10:55:56.691Z,928.13
2022-08-31T10:56:56.670Z,933.75
2022-08-31T10:57:56.650Z,939.38
2022-08-31T10:58:56.637Z,950.63
2022-08-31T10:59:56.626Z,928.13
2022-08-31T11:00:56.667Z,928.13
2022-08-31T11:01:56.610Z,928.13
2022-08-31T11:02:56.586Z,933.75
2022-08-31T11:03:56.587Z,922.50
2022-08-31T11:04:56.624Z,905.63
2022-08-31T11:05:56.593Z,888.75
2022-08-31T11:06:56.536Z,871.88
2022-08-31T11:07:56.550Z,855.00
2022-08-31T11:08:56.518Z,843.75
2022-08-31T11:09:56.497Z,838.13
2022-08-31T11:10:56.492Z,838.13
2022-08-31T11:11:56.490Z,838.13
2022-08-31T11:12:57.593Z,843.75
2022-08-31T11:13:56.450Z,843.75
2022-08-31T11:14:56.447Z,849.38
2022-08-31T11:15:56.471Z,849.38
2022-08-31T11:16:56.429Z,838.13
2022-08-31T11:17:56.391Z,821.25
2022-08-31T11:18:56.385Z,781.88
2022-08-31T11:19:56.379Z,753.75
2022-08-31T11:20:56.354Z,736.88
2022-08-31T11:21:56.356Z,736.88
2022-08-31T11:22:56.328Z,742.50
2022-08-31T11:23:56.328Z,748.13
2022-08-31T11:24:56.305Z,742.50
2022-08-31T11:25:56.293Z,748.13
2022-08-31T11:26:56.298Z,753.75
2022-08-31T11:27:56.270Z,759.38
2022-08-31T11:28:56.257Z,759.38
2022-08-31T11:29:56.234Z,765.00
2022-08-31T11:30:56.327Z,776.25
2022-08-31T11:31:56.227Z,793.13
2022-08-31T11:32:56.198Z,793.13
2022-08-31T11:34:15.055Z,787.50
2022-08-31T11:34:56.172Z,787.50
2022-08-31T11:35:56.170Z,787.50
2022-08-31T11:36:56.163Z,871.88
2022-08-31T11:37:56.231Z,871.88
2022-08-31T11:38:56.129Z,849.38
2022-08-31T11:39:56.120Z,798.75
2022-08-31T11:40:56.099Z,753.75
2022-08-31T11:41:56.164Z,714.38
2022-08-31T11:42:56.075Z,691.88
2022-08-31T11:43:56.055Z,680.63
2022-08-31T11:44:56.041Z,675.00
2022-08-31T11:45:56.107Z,680.63
2022-08-31T11:46:56.028Z,691.88
2022-08-31T11:47:56.014Z,697.50
2022-08-31T11:48:56.005Z,697.50
2022-08-31T11:49:55.979Z,697.50
2022-08-31T11:50:55.970Z,703.13
2022-08-31T11:51:55.965Z,708.75
2022-08-31T11:52:55.946Z,708.75
2022-08-31T11:53:55.936Z,714.38
2022-08-31T11:54:55.925Z,725.63
2022-08-31T11:55:55.913Z,748.13
2022-08-31T11:56:55.911Z,770.63
2022-08-31T11:57:55.875Z,787.50
2022-08-31T11:58:55.863Z,810.00
2022-08-31T11:59:55.853Z,826.88
2022-08-31T12:00:55.851Z,849.38
2022-08-31T12:01:55.851Z,866.25
2022-08-31T12:02:55.859Z,877.50
2022-08-31T12:03:55.800Z,888.75
2022-08-31T12:04:55.836Z,905.63
2022-08-31T12:05:55.785Z,916.88
2022-08-31T12:06:55.776Z,922.50
2022-08-31T12:07:55.758Z,933.75
2022-08-31T12:08:55.737Z,961.88
2022-08-31T12:09:55.725Z,978.75
2022-08-31T12:10:55.721Z,1023.75
2022-08-31T12:11:55.724Z,1051.88
2022-08-31T12:12:55.698Z,1074.38
2022-08-31T12:13:55.689Z,1085.63
2022-08-31T12:14:55.666Z,1125.00
2022-08-31T12:15:55.685Z,1147.50
2022-08-31T12:16:55.653Z,1051.88
2022-08-31T12:17:55.637Z,1023.75
2022-08-31T12:18:55.614Z,1001.25
2022-08-31T12:19:59.116Z,978.75
2022-08-31T12:20:55.597Z,973.13
2022-08-31T12:21:55.589Z,1023.75
2022-08-31T12:22:55.575Z,1057.50
2022-08-31T12:23:55.556Z,1068.75
2022-08-31T12:24:55.553Z,798.75
2022-08-31T12:25:55.542Z,759.38
2022-08-31T12:26:55.529Z,691.88
2022-08-31T12:27:55.506Z,635.63
2022-08-31T12:28:55.493Z,579.38
2022-08-31T12:33:27.162Z,556.88
2022-08-31T12:34:27.121Z,793.13
2022-08-31T12:35:27.098Z,759.38
2022-08-31T12:36:27.100Z,2615.63
2022-08-31T12:37:27.079Z,1845.00
2022-08-31T12:38:27.066Z,2598.75
2022-08-31T12:39:27.060Z,708.75
2022-08-31T12:40:27.110Z,866.25
2022-08-31T12:41:27.042Z,1496.25
2022-08-31T12:42:27.036Z,1271.25
2022-08-31T12:43:27.013Z,2970.00
2022-08-31T12:44:26.989Z,922.50
2022-08-31T12:45:26.976Z,2705.63
2022-08-31T12:46:27.034Z,3054.38
2022-08-31T12:47:26.953Z,3003.75
2022-08-31T12:48:26.950Z,2857.50
2022-08-31T12:49:26.945Z,2688.75
2022-08-31T12:50:26.918Z,2784.38
2022-08-31T12:51:26.916Z,3037.50
2022-08-31T12:52:26.896Z,2497.50
2022-08-31T12:53:26.890Z,2154.38
2022-08-31T12:54:26.871Z,1282.50
2022-08-31T12:55:26.859Z,1530.00
2022-08-31T12:56:26.872Z,922.50
2022-08-31T12:57:27.125Z,849.38
2022-08-31T12:58:26.832Z,798.75
2022-08-31T12:59:40.717Z,815.63
2022-08-31T13:00:26.808Z,888.75
2022-08-31T13:01:26.927Z,1068.75
2022-08-31T13:02:27.023Z,1057.50
2022-08-31T13:03:26.774Z,2413.13
2022-08-31T13:04:26.772Z,2840.63
2022-08-31T13:05:26.761Z,2671.88
2022-08-31T13:06:26.748Z,2795.63
2022-08-31T13:07:26.741Z,2947.50
2022-08-31T13:08:26.718Z,2998.13
2022-08-31T13:09:26.718Z,2891.25
2022-08-31T13:10:26.697Z,2953.13
2022-08-31T13:11:33.109Z,2947.50
2022-08-31T13:12:26.685Z,793.13
2022-08-31T13:13:26.664Z,691.88
2022-08-31T13:36:47.753Z,1462.50
2022-08-31T13:37:47.731Z,2610.00
2022-08-31T13:38:47.727Z,2812.50
2022-08-31T13:39:47.704Z,2874.38
2022-08-31T13:40:47.739Z,2891.25
2022-08-31T13:41:47.702Z,2835.00
2022-08-31T13:42:47.675Z,2953.13
2022-08-31T13:43:47.654Z,2986.88
2022-08-31T13:44:47.649Z,2947.50
2022-08-31T13:45:47.684Z,2925.00
2022-08-31T13:46:47.669Z,2863.13
2022-08-31T13:47:57.059Z,2835.00
2022-08-31T13:48:47.606Z,2598.75
2022-08-31T13:49:47.598Z,2643.75
2022-08-31T13:50:51.919Z,2677.50
2022-08-31T13:51:47.586Z,2801.25
2022-08-31T13:52:59.513Z,2700.00
2022-08-31T13:53:47.554Z,2728.13
2022-08-31T13:54:47.542Z,2694.38
2022-08-31T13:55:47.529Z,2761.88
2022-08-31T13:56:47.534Z,1147.50
2022-08-31T13:57:47.527Z,2503.13
2022-08-31T13:58:47.493Z,2902.50
2022-08-31T13:59:47.487Z,2874.38
2022-08-31T14:00:47.590Z,2733.75
2022-08-31T14:01:47.493Z,2576.25
2022-08-31T14:02:47.509Z,2581.88
2022-08-31T14:03:47.454Z,2446.88
2022-08-31T14:04:47.451Z,2278.13
2022-08-31T14:05:47.442Z,2340.00
2022-08-31T14:06:47.448Z,2255.63
2022-08-31T14:07:47.431Z,2092.50
2022-08-31T14:08:47.415Z,2103.75
2022-08-31T14:09:47.404Z,2109.38
2022-08-31T14:10:47.394Z,1991.25
2022-08-31T14:11:47.407Z,1957.50
2022-08-31T14:12:47.389Z,1935.00
2022-08-31T14:13:47.366Z,1636.88
2022-08-31T14:14:47.361Z,1912.50
2022-08-31T14:15:47.364Z,1839.38
2022-08-31T14:16:52.339Z,1873.13
2022-08-31T14:18:24.027Z,1929.38
2022-08-31T14:18:47.345Z,1991.25
2022-08-31T14:19:47.336Z,2019.38
2022-08-31T14:21:10.246Z,2041.88
2022-08-31T14:21:47.315Z,2047.50
2022-08-31T14:22:47.324Z,2036.25
2022-08-31T14:23:47.299Z,1974.38
2022-08-31T14:24:47.302Z,1963.13
2022-08-31T14:25:47.285Z,1940.63
2022-08-31T14:26:47.277Z,1963.13
2022-08-31T14:27:47.278Z,2098.13
2022-08-31T14:28:47.262Z,2148.75
2022-08-31T14:29:47.272Z,2086.88
2022-08-31T14:30:47.293Z,2233.13
2022-08-31T14:31:47.248Z,2424.38
2022-08-31T14:32:47.261Z,2604.38
2022-08-31T14:33:47.235Z,2508.75
2022-08-31T14:34:47.238Z,2368.13
2022-08-31T14:35:47.221Z,2306.25
2022-08-31T14:36:47.281Z,2413.13
2022-08-31T14:37:47.217Z,1248.75
2022-08-31T14:38:47.202Z,781.88
2022-08-31T14:44:51.916Z,714.38
2022-08-31T14:45:51.926Z,1282.50
2022-08-31T14:46:51.914Z,1074.38
2022-08-31T14:47:51.898Z,843.75
2022-08-31T14:48:51.873Z,877.50
2022-08-31T14:49:51.863Z,838.13
2022-08-31T14:52:10.319Z,641.25
2022-08-31T15:41:24.916Z,1215.00
2022-08-31T15:42:24.911Z,1288.13
2022-08-31T16:00:22.469Z,1738.13
2022-08-31T16:01:22.552Z,1676.25
2022-08-31T16:02:22.482Z,1721.25
2022-08-31T16:03:22.420Z,1771.88
2022-08-31T16:04:22.410Z,1636.88
2022-08-31T16:05:22.407Z,1389.38
2022-08-31T16:06:22.405Z,1153.13
2022-08-31T16:09:15.420Z,1063.13
2022-08-31T16:10:19.753Z,973.13
